SWA2666 KDAL-KELP
Flight info
| Callsign | SWA2666 |
|---|---|
| Flight time | 1h 30m |
| Altitude | 34000 |
| Route | KKITY5 CIKAN BGS LIFFT SAMMR3 |
| Aircraft | B738/M-SDE2E3FGHIRWXY/LB1 |
Departure
| Time | 2026-04-30 18:45 |
|---|---|
| Airport | Dallas Love Field (KDAL) |
Arrival
| Time | 2026-04-30 20:15 |
|---|---|
| Airport | El Paso International Airport (KELP) |
| Time | Latitude | Longitude | Altitude | Speed | Heading |
|---|---|---|---|---|---|
| 2026-04-30 17:55 | 32.84646 | -96.85088 | 482 ft | 0 kts | 180° |
| 2026-04-30 18:31 | 32.84679 | -96.85088 | 478 ft | 4 kts | 184° |
| 2026-04-30 18:32 | 32.84731 | -96.85074 | 475 ft | 4 kts | 215° |
| 2026-04-30 18:32 | 32.84745 | -96.85054 | 478 ft | 2 kts | 269° |
| 2026-04-30 18:32 | 32.84745 | -96.85052 | 478 ft | 1 kts | 270° |
| 2026-04-30 18:36 | 32.84745 | -96.85059 | 476 ft | 4 kts | 270° |
| 2026-04-30 18:37 | 32.84745 | -96.85090 | 479 ft | 6 kts | 270° |
| 2026-04-30 18:37 | 32.84745 | -96.85123 | 493 ft | 6 kts | 270° |
| 2026-04-30 18:37 | 32.84746 | -96.85179 | 483 ft | 7 kts | 270° |
| 2026-04-30 18:38 | 32.84746 | -96.85244 | 483 ft | 8 kts | 271° |
| 2026-04-30 18:38 | 32.84766 | -96.85306 | 478 ft | 8 kts | 325° |
| 2026-04-30 18:38 | 32.84822 | -96.85310 | 480 ft | 8 kts | 10° |
| 2026-04-30 18:38 | 32.84874 | -96.85291 | 483 ft | 8 kts | 34° |
| 2026-04-30 18:39 | 32.84913 | -96.85246 | 483 ft | 8 kts | 43° |
| 2026-04-30 18:39 | 32.84950 | -96.85203 | 480 ft | 8 kts | 43° |
| 2026-04-30 18:39 | 32.85013 | -96.85166 | 479 ft | 11 kts | 338° |
| 2026-04-30 18:39 | 32.85081 | -96.85239 | 476 ft | 15 kts | 320° |
| 2026-04-30 18:40 | 32.85159 | -96.85322 | 483 ft | 15 kts | 318° |
| 2026-04-30 18:40 | 32.85237 | -96.85396 | 481 ft | 14 kts | 331° |
| 2026-04-30 18:40 | 32.85318 | -96.85393 | 479 ft | 12 kts | 336° |
| 2026-04-30 18:40 | 32.85381 | -96.85461 | 484 ft | 17 kts | 316° |
| 2026-04-30 18:41 | 32.85478 | -96.85574 | 483 ft | 20 kts | 314° |
| 2026-04-30 18:41 | 32.85575 | -96.85685 | 483 ft | 18 kts | 316° |
| 2026-04-30 18:41 | 32.85635 | -96.85750 | 483 ft | 8 kts | 333° |
| 2026-04-30 18:41 | 32.85679 | -96.85719 | 482 ft | 8 kts | 50° |
| 2026-04-30 18:42 | 32.85702 | -96.85666 | 481 ft | 7 kts | 92° |
| 2026-04-30 18:42 | 32.85585 | -96.85513 | 485 ft | 46 kts | 135° |
| 2026-04-30 18:42 | 32.85174 | -96.85037 | 483 ft | 117 kts | 136° |
| 2026-04-30 18:45 | 32.75921 | -96.75551 | 4690 ft | 235 kts | 132° |
| 2026-04-30 18:45 | 32.74788 | -96.74114 | 4955 ft | 242 kts | 135° |
| 2026-04-30 18:45 | 32.73586 | -96.72659 | 5231 ft | 253 kts | 134° |
| 2026-04-30 18:46 | 32.72306 | -96.71126 | 5410 ft | 269 kts | 144° |
| 2026-04-30 18:46 | 32.70560 | -96.70428 | 6046 ft | 266 kts | 182° |
| 2026-04-30 18:46 | 32.68761 | -96.70893 | 6579 ft | 267 kts | 207° |
| 2026-04-30 18:46 | 32.67071 | -96.71827 | 7230 ft | 268 kts | 210° |
| 2026-04-30 18:47 | 32.65373 | -96.72782 | 7878 ft | 273 kts | 210° |
| 2026-04-30 18:47 | 32.63640 | -96.73775 | 8503 ft | 276 kts | 215° |
| 2026-04-30 18:47 | 32.62285 | -96.75267 | 9270 ft | 267 kts | 242° |
| 2026-04-30 18:47 | 32.61575 | -96.77280 | 9992 ft | 265 kts | 260° |
| 2026-04-30 18:48 | 32.61413 | -96.79485 | 10454 ft | 277 kts | 269° |
| 2026-04-30 18:48 | 32.61413 | -96.81866 | 10571 ft | 300 kts | 271° |
| 2026-04-30 18:48 | 32.61445 | -96.84431 | 10732 ft | 320 kts | 270° |
| 2026-04-30 18:48 | 32.61481 | -96.87145 | 10955 ft | 336 kts | 270° |
| 2026-04-30 18:49 | 32.61512 | -96.89941 | 11467 ft | 341 kts | 270° |
| 2026-04-30 18:49 | 32.61536 | -96.92754 | 12186 ft | 340 kts | 269° |
| 2026-04-30 18:49 | 32.61554 | -96.95562 | 12910 ft | 340 kts | 269° |
| 2026-04-30 18:49 | 32.61569 | -96.98338 | 13668 ft | 340 kts | 268° |
| 2026-04-30 18:50 | 32.61580 | -97.01160 | 14310 ft | 341 kts | 268° |
| 2026-04-30 18:50 | 32.61590 | -97.03984 | 14975 ft | 342 kts | 268° |
| 2026-04-30 18:50 | 32.61598 | -97.06799 | 15647 ft | 342 kts | 269° |
| 2026-04-30 18:50 | 32.61605 | -97.09626 | 16299 ft | 343 kts | 269° |
| 2026-04-30 18:51 | 32.61612 | -97.12470 | 16898 ft | 345 kts | 269° |
| 2026-04-30 18:51 | 32.61618 | -97.15316 | 17542 ft | 346 kts | 269° |
| 2026-04-30 18:51 | 32.61623 | -97.18098 | 18197 ft | 346 kts | 269° |
| 2026-04-30 18:51 | 32.61627 | -97.20999 | 18735 ft | 349 kts | 269° |
| 2026-04-30 18:52 | 32.61631 | -97.23900 | 19165 ft | 353 kts | 269° |
| 2026-04-30 18:52 | 32.61635 | -97.26836 | 19598 ft | 357 kts | 269° |
| 2026-04-30 18:52 | 32.61638 | -97.29797 | 20014 ft | 360 kts | 269° |
| 2026-04-30 18:52 | 32.61640 | -97.32782 | 20460 ft | 364 kts | 269° |
| 2026-04-30 18:53 | 32.61605 | -97.35805 | 20933 ft | 367 kts | 268° |
| 2026-04-30 18:54 | 32.61549 | -97.37762 | 21218 ft | 369 kts | 267° |
| 2026-04-30 18:54 | 32.61440 | -97.40812 | 21632 ft | 372 kts | 267° |
| 2026-04-30 18:54 | 32.61322 | -97.43899 | 22057 ft | 376 kts | 267° |
| 2026-04-30 18:55 | 32.61203 | -97.47015 | 22491 ft | 379 kts | 267° |
| 2026-04-30 18:55 | 32.60971 | -97.53287 | 23196 ft | 386 kts | 267° |
| 2026-04-30 18:55 | 32.60856 | -97.56514 | 23528 ft | 389 kts | 268° |
| 2026-04-30 18:56 | 32.60629 | -97.62927 | 24089 ft | 394 kts | 267° |
| 2026-04-30 18:56 | 32.60513 | -97.66180 | 24466 ft | 394 kts | 267° |
| 2026-04-30 18:56 | 32.60397 | -97.69420 | 24849 ft | 393 kts | 267° |
| 2026-04-30 18:57 | 32.60165 | -97.75927 | 25463 ft | 396 kts | 267° |
| 2026-04-30 18:57 | 32.60047 | -97.79196 | 25767 ft | 397 kts | 267° |
| 2026-04-30 18:57 | 32.59928 | -97.82475 | 26080 ft | 398 kts | 268° |
| 2026-04-30 18:58 | 32.59688 | -97.88995 | 26660 ft | 399 kts | 268° |
| 2026-04-30 18:58 | 32.59565 | -97.92289 | 26941 ft | 400 kts | 268° |
| 2026-04-30 18:58 | 32.59441 | -97.95596 | 27215 ft | 401 kts | 268° |
| 2026-04-30 18:59 | 32.59191 | -98.02195 | 27984 ft | 398 kts | 268° |
| 2026-04-30 19:00 | 32.58817 | -98.11879 | 29422 ft | 387 kts | 268° |
| 2026-04-30 19:00 | 32.58694 | -98.15018 | 29899 ft | 384 kts | 268° |
| 2026-04-30 19:00 | 32.58446 | -98.21312 | 30629 ft | 381 kts | 268° |
| 2026-04-30 19:01 | 32.58196 | -98.27556 | 31247 ft | 380 kts | 268° |
| 2026-04-30 19:01 | 32.58070 | -98.30685 | 31608 ft | 379 kts | 268° |
| 2026-04-30 19:02 | 32.57818 | -98.36873 | 32226 ft | 378 kts | 267° |
| 2026-04-30 19:02 | 32.57567 | -98.42957 | 33391 ft | 364 kts | 267° |
| 2026-04-30 19:03 | 32.57311 | -98.48989 | 33698 ft | 371 kts | 267° |
| 2026-04-30 19:03 | 32.57050 | -98.55116 | 34008 ft | 376 kts | 267° |
| 2026-04-30 19:04 | 32.56785 | -98.61313 | 34016 ft | 373 kts | 267° |
| 2026-04-30 19:05 | 32.56261 | -98.73518 | 34026 ft | 369 kts | 267° |
| 2026-04-30 19:06 | 32.55728 | -98.85603 | 34032 ft | 368 kts | 267° |
| 2026-04-30 19:06 | 32.55317 | -98.94718 | 34036 ft | 369 kts | 267° |
| 2026-04-30 19:07 | 32.54899 | -99.03823 | 34011 ft | 371 kts | 266° |
| 2026-04-30 19:08 | 32.54326 | -99.16072 | 34014 ft | 373 kts | 266° |
| 2026-04-30 19:09 | 32.53885 | -99.25319 | 34016 ft | 375 kts | 266° |
| 2026-04-30 19:09 | 32.53587 | -99.31497 | 34014 ft | 376 kts | 266° |
| 2026-04-30 19:10 | 32.53165 | -99.43848 | 33551 ft | 380 kts | 266° |
| 2026-04-30 19:11 | 32.52996 | -99.46897 | 33819 ft | 365 kts | 265° |
| 2026-04-30 19:11 | 32.52587 | -99.52914 | 33968 ft | 369 kts | 265° |
| 2026-04-30 19:12 | 32.52230 | -99.59061 | 34023 ft | 378 kts | 266° |
| 2026-04-30 19:12 | 32.51902 | -99.65277 | 34033 ft | 378 kts | 266° |
| 2026-04-30 19:13 | 32.51263 | -99.77663 | 33994 ft | 376 kts | 266° |
| 2026-04-30 19:14 | 32.50940 | -99.83848 | 33992 ft | 375 kts | 266° |
| 2026-04-30 19:14 | 32.50615 | -99.89998 | 33993 ft | 373 kts | 266° |
| 2026-04-30 19:15 | 32.50288 | -99.96128 | 33992 ft | 371 kts | 266° |
| 2026-04-30 19:15 | 32.49797 | -100.05224 | 33993 ft | 369 kts | 266° |
| 2026-04-30 19:16 | 32.49466 | -100.11284 | 34000 ft | 368 kts | 266° |
| 2026-04-30 19:17 | 32.48965 | -100.20368 | 34005 ft | 368 kts | 266° |
| 2026-04-30 19:17 | 32.48459 | -100.29429 | 34013 ft | 369 kts | 266° |
| 2026-04-30 19:18 | 32.47822 | -100.38525 | 34059 ft | 370 kts | 265° |
| 2026-04-30 19:19 | 32.47319 | -100.44583 | 34063 ft | 370 kts | 265° |
| 2026-04-30 19:19 | 32.46572 | -100.53692 | 34061 ft | 371 kts | 265° |
| 2026-04-30 19:20 | 32.46076 | -100.59781 | 34068 ft | 371 kts | 265° |
| 2026-04-30 19:21 | 32.45320 | -100.68882 | 34044 ft | 371 kts | 264° |
| 2026-04-30 19:22 | 32.44309 | -100.81044 | 34023 ft | 371 kts | 264° |
| 2026-04-30 19:23 | 32.42809 | -100.99215 | 34035 ft | 370 kts | 264° |
| 2026-04-30 19:24 | 32.42040 | -101.08255 | 34018 ft | 369 kts | 264° |
| 2026-04-30 19:25 | 32.40743 | -101.23374 | 34002 ft | 369 kts | 264° |
| 2026-04-30 19:26 | 32.39693 | -101.35460 | 34001 ft | 368 kts | 264° |
| 2026-04-30 19:27 | 32.38903 | -101.44471 | 34002 ft | 368 kts | 264° |
| 2026-04-30 19:28 | 32.37989 | -101.53483 | 33998 ft | 368 kts | 262° |
| 2026-04-30 19:29 | 32.36441 | -101.65462 | 34004 ft | 368 kts | 262° |
| 2026-04-30 19:30 | 32.34925 | -101.77395 | 33997 ft | 367 kts | 262° |
| 2026-04-30 19:31 | 32.33409 | -101.89339 | 33999 ft | 367 kts | 262° |
| 2026-04-30 19:31 | 32.32268 | -101.98279 | 34006 ft | 367 kts | 262° |
| 2026-04-30 19:32 | 32.31508 | -102.04206 | 34010 ft | 366 kts | 262° |
| 2026-04-30 19:32 | 32.30742 | -102.10160 | 34010 ft | 366 kts | 262° |
| 2026-04-30 19:33 | 32.29974 | -102.16102 | 34013 ft | 366 kts | 262° |
| 2026-04-30 19:33 | 32.29202 | -102.22049 | 33979 ft | 366 kts | 262° |
| 2026-04-30 19:34 | 32.28427 | -102.28001 | 33984 ft | 366 kts | 262° |
| 2026-04-30 19:35 | 32.27259 | -102.36929 | 33985 ft | 367 kts | 262° |
| 2026-04-30 19:35 | 32.26480 | -102.42852 | 33982 ft | 367 kts | 261° |
| 2026-04-30 19:36 | 32.25694 | -102.48810 | 33975 ft | 367 kts | 261° |
| 2026-04-30 19:36 | 32.24508 | -102.57756 | 33971 ft | 368 kts | 261° |
| 2026-04-30 19:37 | 32.23714 | -102.63722 | 33969 ft | 368 kts | 261° |
| 2026-04-30 19:37 | 32.22915 | -102.69696 | 33966 ft | 368 kts | 261° |
| 2026-04-30 19:38 | 32.22114 | -102.75664 | 33966 ft | 368 kts | 261° |
| 2026-04-30 19:38 | 32.21311 | -102.81628 | 33962 ft | 367 kts | 261° |
| 2026-04-30 19:39 | 32.20511 | -102.87550 | 33965 ft | 367 kts | 261° |
| 2026-04-30 19:39 | 32.19704 | -102.93501 | 33955 ft | 367 kts | 261° |
| 2026-04-30 19:40 | 32.18893 | -102.99455 | 33961 ft | 367 kts | 261° |
| 2026-04-30 19:40 | 32.18211 | -103.04392 | 33954 ft | 366 kts | 261° |
| 2026-04-30 19:41 | 32.17401 | -103.10320 | 33951 ft | 366 kts | 261° |
| 2026-04-30 19:41 | 32.16588 | -103.16261 | 33952 ft | 366 kts | 260° |
| 2026-04-30 19:42 | 32.15771 | -103.22191 | 33948 ft | 365 kts | 260° |
| 2026-04-30 19:42 | 32.14952 | -103.28107 | 33947 ft | 365 kts | 260° |
| 2026-04-30 19:43 | 32.14135 | -103.33983 | 33949 ft | 365 kts | 260° |
| 2026-04-30 19:44 | 32.12897 | -103.42848 | 33942 ft | 365 kts | 260° |
| 2026-04-30 19:44 | 32.12068 | -103.48766 | 33944 ft | 365 kts | 260° |
| 2026-04-30 19:45 | 32.11236 | -103.54676 | 33933 ft | 365 kts | 260° |
| 2026-04-30 19:45 | 32.10403 | -103.60578 | 33938 ft | 365 kts | 260° |
| 2026-04-30 19:46 | 32.09550 | -103.66457 | 33936 ft | 365 kts | 259° |
| 2026-04-30 19:46 | 32.08694 | -103.72363 | 33931 ft | 365 kts | 259° |
| 2026-04-30 19:47 | 32.07854 | -103.78276 | 33932 ft | 365 kts | 259° |
| 2026-04-30 19:47 | 32.07012 | -103.84183 | 33921 ft | 366 kts | 259° |
| 2026-04-30 19:48 | 32.06165 | -103.90097 | 33921 ft | 366 kts | 259° |
| 2026-04-30 19:48 | 32.05314 | -103.96009 | 33918 ft | 366 kts | 259° |
| 2026-04-30 19:49 | 32.04465 | -104.01884 | 33926 ft | 366 kts | 259° |
| 2026-04-30 19:49 | 32.03179 | -104.10760 | 33939 ft | 366 kts | 259° |
| 2026-04-30 19:50 | 32.02331 | -104.16677 | 33941 ft | 366 kts | 259° |
| 2026-04-30 19:50 | 32.01472 | -104.22576 | 33936 ft | 357 kts | 259° |
| 2026-04-30 19:51 | 32.01058 | -104.25408 | 33905 ft | 345 kts | 259° |
| 2026-04-30 19:51 | 32.00651 | -104.28179 | 33618 ft | 338 kts | 259° |
| 2026-04-30 19:51 | 32.00255 | -104.30878 | 33229 ft | 332 kts | 259° |
| 2026-04-30 19:51 | 31.99865 | -104.33526 | 32870 ft | 326 kts | 259° |
| 2026-04-30 19:52 | 31.99479 | -104.36139 | 32484 ft | 322 kts | 259° |
| 2026-04-30 19:52 | 31.99099 | -104.38707 | 32110 ft | 324 kts | 259° |
| 2026-04-30 19:52 | 31.98775 | -104.41374 | 31679 ft | 332 kts | 262° |
| 2026-04-30 19:52 | 31.98564 | -104.44080 | 31244 ft | 330 kts | 263° |
| 2026-04-30 19:53 | 31.98378 | -104.46761 | 30846 ft | 327 kts | 263° |
| 2026-04-30 19:53 | 31.98197 | -104.49416 | 30458 ft | 324 kts | 263° |
| 2026-04-30 19:53 | 31.98016 | -104.52056 | 30078 ft | 321 kts | 263° |
| 2026-04-30 19:53 | 31.97835 | -104.54668 | 29642 ft | 318 kts | 263° |
| 2026-04-30 19:54 | 31.97652 | -104.57255 | 29225 ft | 315 kts | 263° |
| 2026-04-30 19:54 | 31.97469 | -104.59813 | 28831 ft | 312 kts | 263° |
| 2026-04-30 19:54 | 31.97287 | -104.62350 | 28431 ft | 309 kts | 263° |
| 2026-04-30 19:54 | 31.97104 | -104.64863 | 28048 ft | 310 kts | 263° |
| 2026-04-30 19:55 | 31.96916 | -104.67424 | 27677 ft | 320 kts | 263° |
| 2026-04-30 19:55 | 31.96726 | -104.70015 | 27275 ft | 320 kts | 263° |
| 2026-04-30 19:55 | 31.96535 | -104.72615 | 26881 ft | 317 kts | 263° |
| 2026-04-30 19:55 | 31.96346 | -104.75188 | 26489 ft | 314 kts | 263° |
| 2026-04-30 19:56 | 31.96160 | -104.77710 | 26726 ft | 315 kts | 264° |
| 2026-04-30 19:56 | 31.95967 | -104.80303 | 25658 ft | 314 kts | 263° |
| 2026-04-30 19:56 | 31.95776 | -104.82861 | 25335 ft | 310 kts | 263° |
| 2026-04-30 19:56 | 31.95586 | -104.85389 | 24960 ft | 309 kts | 263° |
| 2026-04-30 19:57 | 31.95397 | -104.87918 | 24595 ft | 313 kts | 263° |
| 2026-04-30 19:57 | 31.95203 | -104.90511 | 24203 ft | 322 kts | 263° |
| 2026-04-30 19:57 | 31.95005 | -104.93152 | 23782 ft | 324 kts | 263° |
| 2026-04-30 19:57 | 31.94808 | -104.95767 | 23372 ft | 324 kts | 263° |
| 2026-04-30 19:58 | 31.94610 | -104.98394 | 22927 ft | 322 kts | 263° |
| 2026-04-30 19:58 | 31.94412 | -105.01010 | 22528 ft | 320 kts | 263° |
| 2026-04-30 19:58 | 31.94215 | -105.03608 | 22143 ft | 317 kts | 263° |
| 2026-04-30 19:58 | 31.94018 | -105.06181 | 21768 ft | 314 kts | 263° |
| 2026-04-30 19:59 | 31.93823 | -105.08729 | 21385 ft | 311 kts | 263° |
| 2026-04-30 19:59 | 31.93626 | -105.11261 | 21021 ft | 309 kts | 263° |
| 2026-04-30 19:59 | 31.93234 | -105.16256 | 20304 ft | 304 kts | 263° |
| 2026-04-30 20:00 | 31.93043 | -105.18725 | 20003 ft | 301 kts | 263° |
| 2026-04-30 20:00 | 31.92854 | -105.21179 | 19609 ft | 299 kts | 263° |
| 2026-04-30 20:00 | 31.92669 | -105.23584 | 19254 ft | 297 kts | 263° |
| 2026-04-30 20:00 | 31.92481 | -105.26005 | 18910 ft | 295 kts | 263° |
| 2026-04-30 20:01 | 31.92107 | -105.30789 | 18207 ft | 292 kts | 263° |
| 2026-04-30 20:01 | 31.91918 | -105.33168 | 17821 ft | 291 kts | 263° |
| 2026-04-30 20:01 | 31.91732 | -105.35533 | 17447 ft | 289 kts | 263° |
| 2026-04-30 20:02 | 31.91368 | -105.40192 | 16714 ft | 285 kts | 262° |
| 2026-04-30 20:02 | 31.91183 | -105.42509 | 16366 ft | 284 kts | 263° |
| 2026-04-30 20:03 | 31.90798 | -105.47177 | 15666 ft | 288 kts | 262° |
| 2026-04-30 20:03 | 31.90609 | -105.49518 | 15318 ft | 287 kts | 263° |
| 2026-04-30 20:03 | 31.90429 | -105.51848 | 14978 ft | 285 kts | 263° |
| 2026-04-30 20:03 | 31.90250 | -105.54143 | 14632 ft | 285 kts | 263° |
| 2026-04-30 20:04 | 31.90065 | -105.56470 | 14278 ft | 285 kts | 262° |
| 2026-04-30 20:04 | 31.89880 | -105.58789 | 13910 ft | 285 kts | 262° |
| 2026-04-30 20:04 | 31.89693 | -105.61114 | 13538 ft | 285 kts | 262° |
| 2026-04-30 20:05 | 31.89319 | -105.65741 | 12808 ft | 283 kts | 263° |
| 2026-04-30 20:05 | 31.89129 | -105.68047 | 12455 ft | 282 kts | 263° |
| 2026-04-30 20:05 | 31.88757 | -105.72632 | 11742 ft | 280 kts | 263° |
| 2026-04-30 20:06 | 31.88570 | -105.74912 | 11407 ft | 280 kts | 263° |
| 2026-04-30 20:06 | 31.88384 | -105.77186 | 11075 ft | 280 kts | 263° |
| 2026-04-30 20:06 | 31.88195 | -105.79482 | 10754 ft | 283 kts | 263° |
| 2026-04-30 20:06 | 31.88007 | -105.81789 | 10429 ft | 283 kts | 263° |
| 2026-04-30 20:07 | 31.87819 | -105.84075 | 10222 ft | 277 kts | 263° |
| 2026-04-30 20:07 | 31.87635 | -105.86312 | 10065 ft | 271 kts | 263° |
| 2026-04-30 20:07 | 31.87282 | -105.90571 | 9809 ft | 256 kts | 264° |
| 2026-04-30 20:08 | 31.87177 | -105.92653 | 9640 ft | 255 kts | 266° |
| 2026-04-30 20:08 | 31.87107 | -105.94749 | 9441 ft | 257 kts | 266° |
| 2026-04-30 20:08 | 31.87042 | -105.96857 | 9258 ft | 258 kts | 268° |
| 2026-04-30 20:08 | 31.86982 | -105.98963 | 9072 ft | 257 kts | 267° |
| 2026-04-30 20:09 | 31.86913 | -106.01058 | 8878 ft | 255 kts | 267° |
| 2026-04-30 20:09 | 31.86840 | -106.03142 | 8704 ft | 254 kts | 267° |
| 2026-04-30 20:09 | 31.86694 | -106.07201 | 8347 ft | 245 kts | 267° |
| 2026-04-30 20:10 | 31.86550 | -106.11131 | 7992 ft | 233 kts | 266° |
| 2026-04-30 20:10 | 31.86595 | -106.13001 | 7762 ft | 228 kts | 279° |
| 2026-04-30 20:10 | 31.86996 | -106.14777 | 7550 ft | 220 kts | 282° |
| 2026-04-30 20:11 | 31.87763 | -106.18202 | 7103 ft | 216 kts | 281° |
| 2026-04-30 20:11 | 31.88130 | -106.19889 | 6918 ft | 214 kts | 281° |
| 2026-04-30 20:11 | 31.88493 | -106.21565 | 6669 ft | 209 kts | 281° |
| 2026-04-30 20:12 | 31.89190 | -106.24800 | 6016 ft | 205 kts | 281° |
| 2026-04-30 20:12 | 31.89374 | -106.26451 | 5502 ft | 204 kts | 258° |
| 2026-04-30 20:12 | 31.88791 | -106.27917 | 5198 ft | 196 kts | 234° |
| 2026-04-30 20:13 | 31.87948 | -106.29105 | 5095 ft | 180 kts | 229° |
| 2026-04-30 20:13 | 31.87185 | -106.30150 | 5076 ft | 155 kts | 231° |
| 2026-04-30 20:13 | 31.86518 | -106.31079 | 5071 ft | 148 kts | 231° |
| 2026-04-30 20:13 | 31.85865 | -106.31995 | 5123 ft | 148 kts | 230° |
| 2026-04-30 20:14 | 31.85180 | -106.32954 | 4971 ft | 153 kts | 232° |
| 2026-04-30 20:14 | 31.84500 | -106.33902 | 4701 ft | 150 kts | 231° |
| 2026-04-30 20:14 | 31.83860 | -106.34816 | 4533 ft | 139 kts | 234° |
| 2026-04-30 20:14 | 31.83236 | -106.35689 | 4300 ft | 139 kts | 233° |
| 2026-04-30 20:15 | 31.82644 | -106.36525 | 4100 ft | 132 kts | 229° |
| 2026-04-30 20:15 | 31.82055 | -106.37339 | 3949 ft | 126 kts | 231° |
| 2026-04-30 20:15 | 31.81587 | -106.37991 | 3946 ft | 75 kts | 230° |
| 2026-04-30 20:15 | 31.81367 | -106.38298 | 3946 ft | 38 kts | 230° |
| 2026-04-30 20:16 | 31.81265 | -106.38439 | 3948 ft | 16 kts | 229° |
| 2026-04-30 20:16 | 31.81191 | -106.38482 | 3947 ft | 11 kts | 167° |
| 2026-04-30 20:16 | 31.81140 | -106.38438 | 3946 ft | 6 kts | 141° |
| 2026-04-30 20:16 | 31.81137 | -106.38435 | 3946 ft | 0 kts | 141° |
| 2026-04-30 20:17 | 31.81117 | -106.38416 | 3946 ft | 6 kts | 141° |
| 2026-04-30 20:17 | 31.81081 | -106.38382 | 3946 ft | 7 kts | 146° |
| 2026-04-30 20:17 | 31.81038 | -106.38384 | 3946 ft | 6 kts | 212° |
| 2026-04-30 20:18 | 31.81007 | -106.38422 | 3946 ft | 6 kts | 228° |
| 2026-04-30 20:18 | 31.80977 | -106.38460 | 3946 ft | 6 kts | 230° |
| 2026-04-30 20:18 | 31.80951 | -106.38499 | 3946 ft | 6 kts | 231° |
| 2026-04-30 20:18 | 31.80922 | -106.38540 | 3946 ft | 8 kts | 231° |
| 2026-04-30 20:19 | 31.80875 | -106.38605 | 3946 ft | 11 kts | 230° |
| 2026-04-30 20:19 | 31.80842 | -106.38651 | 3946 ft | 11 kts | 229° |
| 2026-04-30 20:19 | 31.80772 | -106.38731 | 3946 ft | 10 kts | 223° |
| 2026-04-30 20:19 | 31.80721 | -106.38788 | 3946 ft | 10 kts | 223° |
| 2026-04-30 20:20 | 31.80671 | -106.38843 | 3946 ft | 10 kts | 223° |
| 2026-04-30 20:20 | 31.80622 | -106.38897 | 3946 ft | 9 kts | 223° |
| 2026-04-30 20:20 | 31.80575 | -106.38950 | 3946 ft | 9 kts | 223° |
| 2026-04-30 20:20 | 31.80524 | -106.38994 | 3946 ft | 9 kts | 207° |
| 2026-04-30 20:21 | 31.80481 | -106.39045 | 3946 ft | 12 kts | 229° |
| 2026-04-30 20:21 | 31.80413 | -106.39126 | 3946 ft | 14 kts | 224° |
| 2026-04-30 20:21 | 31.80342 | -106.39203 | 3946 ft | 14 kts | 222° |
| 2026-04-30 20:21 | 31.80276 | -106.39274 | 3946 ft | 10 kts | 223° |
| 2026-04-30 20:22 | 31.80236 | -106.39301 | 3946 ft | 7 kts | 185° |
| 2026-04-30 20:22 | 31.80193 | -106.39286 | 3946 ft | 6 kts | 150° |
| 2026-04-30 20:22 | 31.80161 | -106.39250 | 3946 ft | 6 kts | 133° |
| 2026-04-30 20:22 | 31.80131 | -106.39213 | 3946 ft | 6 kts | 134° |
| 2026-04-30 20:23 | 31.80101 | -106.39175 | 3946 ft | 7 kts | 134° |
| 2026-04-30 20:23 | 31.80058 | -106.39142 | 3946 ft | 8 kts | 173° |
| 2026-04-30 20:23 | 31.80009 | -106.39147 | 3946 ft | 7 kts | 217° |
| 2026-04-30 20:23 | 31.80011 | -106.39170 | 3946 ft | 3 kts | 298° |
| 2026-04-30 20:24 | 31.80029 | -106.39206 | 3946 ft | 8 kts | 300° |
| 2026-04-30 20:24 | 31.80041 | -106.39230 | 3946 ft | 2 kts | 301° |
| 2026-04-30 20:24 | 31.80046 | -106.39240 | 3946 ft | 1 kts | 300° |
| 2026-04-30 20:24 | 31.80047 | -106.39241 | 3946 ft | 0 kts | 300° |